createdAt,value
2024-04-12T00:01:43.364Z,84.71
2024-04-12T00:07:01.126Z,84.23
2024-04-12T00:12:02.834Z,84.33
2024-04-12T00:17:17.291Z,84.51
2024-04-12T00:22:19.728Z,84.86
2024-04-12T00:27:22.878Z,84.83
2024-04-12T00:32:27.573Z,84.50
2024-04-12T00:37:34.315Z,84.64
2024-04-12T00:42:36.155Z,84.65
2024-04-12T00:47:38.436Z,84.83
2024-04-12T00:52:44.672Z,84.56
2024-04-12T00:57:46.837Z,84.65
2024-04-12T01:02:50.357Z,84.45
2024-04-12T01:07:57.640Z,84.69
2024-04-12T01:13:04.119Z,84.70
2024-04-12T01:18:16.568Z,84.75
2024-04-12T01:23:19.000Z,84.44
2024-04-12T01:28:21.018Z,84.39
2024-04-12T01:33:22.892Z,84.51
2024-04-12T01:38:24.890Z,84.56
2024-04-12T01:43:28.603Z,84.45
2024-04-12T01:48:32.091Z,84.44
2024-04-12T01:53:38.739Z,84.64
2024-04-12T01:58:42.271Z,84.66
2024-04-12T02:03:44.796Z,84.95
2024-04-12T02:08:46.851Z,84.95
2024-04-12T02:13:48.614Z,84.76
2024-04-12T02:18:50.352Z,84.65
2024-04-12T02:23:54.198Z,84.62
2024-04-12T02:29:00.319Z,84.57
2024-04-12T02:34:03.489Z,85.02
2024-04-12T02:39:09.295Z,84.95
2024-04-12T02:44:11.309Z,84.59
2024-04-12T02:49:14.179Z,84.73
2024-04-12T02:54:17.703Z,84.58
2024-04-12T02:59:19.547Z,84.91
2024-04-12T03:04:21.863Z,85.11
2024-04-12T03:09:28.422Z,84.87
2024-04-12T03:14:31.900Z,84.98
2024-04-12T03:19:33.819Z,85.16
2024-04-12T03:24:35.521Z,85.11
2024-04-12T03:29:37.489Z,85.11
2024-04-12T03:34:39.257Z,85.24
2024-04-12T03:39:40.919Z,85.08
2024-04-12T03:44:44.064Z,85.67
2024-04-12T03:49:46.024Z,85.85
2024-04-12T03:54:48.970Z,85.61
2024-04-12T03:59:58.561Z,85.87
2024-04-12T04:05:15.083Z,85.67
2024-04-12T04:10:21.694Z,85.50
2024-04-12T04:15:27.217Z,85.70
2024-04-12T04:20:29.645Z,86.00
2024-04-12T04:25:32.991Z,86.21
2024-04-12T04:30:36.554Z,86.71
2024-04-12T04:35:38.426Z,86.58
2024-04-12T04:40:40.165Z,86.57
2024-04-12T04:45:42.023Z,86.98
2024-04-12T04:50:44.760Z,87.02
2024-04-12T04:55:46.601Z,87.42
2024-04-12T05:00:50.677Z,87.51
2024-04-12T05:05:53.591Z,87.67
2024-04-12T05:10:56.865Z,87.16
2024-04-12T05:15:59.188Z,86.95
2024-04-12T05:21:01.249Z,86.67
2024-04-12T05:26:03.237Z,87.09
2024-04-12T05:31:13.106Z,86.68
2024-04-12T05:36:15.684Z,86.68
2024-04-12T05:41:17.439Z,86.40
2024-04-12T05:46:23.651Z,86.04
2024-04-12T05:51:26.331Z,85.83
2024-04-12T05:56:30.289Z,85.23
2024-04-12T06:01:35.009Z,84.85
2024-04-12T06:06:36.956Z,84.20
2024-04-12T06:11:38.686Z,83.46
2024-04-12T06:16:41.360Z,82.30
2024-04-12T06:21:46.839Z,81.56
2024-04-12T06:26:49.244Z,81.06
2024-04-12T06:31:51.805Z,80.68
2024-04-12T06:37:07.164Z,80.25
2024-04-12T06:42:10.237Z,79.28
2024-04-12T06:47:14.608Z,78.26
2024-04-12T06:52:22.138Z,77.73
2024-04-12T06:57:26.487Z,77.71
2024-04-12T07:02:31.843Z,76.99
2024-04-12T07:07:34.582Z,74.91
2024-04-12T07:12:39.239Z,72.97
2024-04-12T07:17:41.396Z,71.53
2024-04-12T07:22:43.497Z,69.05
2024-04-12T07:27:49.317Z,67.13
2024-04-12T07:32:51.867Z,65.96
2024-04-12T07:38:03.595Z,64.78
2024-04-12T07:43:11.523Z,64.07
2024-04-12T07:48:23.639Z,64.26
2024-04-12T07:53:27.439Z,63.77
2024-04-12T07:58:35.450Z,63.19
2024-04-12T08:03:38.852Z,61.59
2024-04-12T08:08:46.791Z,61.08
2024-04-12T08:13:51.826Z,59.64
2024-04-12T08:18:56.749Z,59.37
2024-04-12T08:23:59.852Z,58.92
2024-04-12T08:29:07.943Z,58.59
2024-04-12T08:34:15.441Z,58.64
2024-04-12T08:39:27.553Z,55.48
2024-04-12T08:44:32.709Z,52.38
2024-04-12T08:49:34.544Z,51.60
2024-04-12T08:54:42.848Z,50.83
2024-04-12T08:59:48.293Z,49.54
2024-04-12T09:04:53.606Z,49.53
2024-04-12T09:09:55.826Z,47.77
2024-04-12T09:15:00.320Z,47.73
2024-04-12T09:20:05.247Z,48.23
2024-04-12T09:25:15.929Z,47.17
2024-04-12T09:30:36.418Z,48.23
2024-04-12T09:35:40.642Z,48.46
2024-04-12T09:40:50.428Z,46.89
2024-04-12T09:46:06.864Z,46.58
2024-04-12T09:51:27.886Z,46.83
2024-04-12T09:56:49.934Z,47.50
2024-04-12T10:02:14.151Z,47.75
2024-04-12T10:07:39.146Z,46.69
2024-04-12T10:13:00.588Z,47.52
2024-04-12T10:18:25.666Z,46.11
2024-04-12T10:23:49.839Z,45.61
2024-04-12T10:29:13.001Z,46.15
2024-04-12T10:34:35.754Z,45.20
2024-04-12T10:39:45.632Z,45.60
2024-04-12T10:44:57.634Z,44.84
2024-04-12T10:49:59.740Z,45.24
2024-04-12T10:55:12.177Z,44.70
2024-04-12T11:00:29.096Z,44.38
2024-04-12T11:05:30.808Z,44.47
2024-04-12T11:10:41.858Z,44.04
2024-04-12T11:15:43.945Z,44.23
2024-04-12T11:21:14.665Z,43.14
2024-04-12T11:26:39.145Z,43.87
2024-04-12T11:31:41.297Z,43.82
2024-04-12T11:36:45.858Z,42.89
2024-04-12T11:41:48.823Z,42.43
2024-04-12T11:46:52.100Z,43.98
2024-04-12T11:51:56.762Z,42.96
2024-04-12T11:57:00.791Z,40.96
2024-04-12T12:02:05.429Z,40.98
2024-04-12T12:07:12.258Z,41.37
2024-04-12T12:12:14.779Z,40.73
2024-04-12T12:17:19.583Z,41.80
2024-04-12T12:22:22.923Z,40.37
2024-04-12T12:27:25.337Z,40.77
2024-04-12T12:32:27.758Z,40.01
2024-04-12T12:37:30.348Z,39.85
2024-04-12T12:42:33.457Z,39.34
2024-04-12T12:47:36.710Z,38.65
2024-04-12T12:52:38.614Z,38.99
2024-04-12T12:57:40.598Z,37.82
2024-04-12T13:02:43.332Z,38.60
2024-04-12T13:07:45.398Z,39.05
2024-04-12T13:12:52.510Z,40.39
2024-04-12T13:17:54.431Z,39.51
2024-04-12T13:22:56.340Z,39.66
2024-04-12T13:28:01.952Z,40.00
2024-04-12T13:33:09.560Z,41.24
2024-04-12T13:38:14.982Z,40.71
2024-04-12T13:43:18.128Z,40.60
2024-04-12T13:48:38.771Z,40.27
2024-04-12T13:53:44.997Z,40.47
2024-04-12T13:58:54.607Z,40.89
2024-04-12T14:04:05.096Z,40.59
2024-04-12T14:09:10.806Z,40.09
2024-04-12T14:14:12.697Z,40.10
2024-04-12T14:19:23.693Z,40.68
2024-04-12T14:24:44.427Z,40.11
2024-04-12T14:29:46.845Z,40.22
2024-04-12T14:34:58.228Z,40.34
2024-04-12T14:40:09.088Z,39.77
2024-04-12T14:45:10.815Z,40.35
2024-04-12T14:50:12.767Z,40.74
2024-04-12T14:55:16.904Z,40.33
2024-04-12T15:00:20.927Z,40.15
2024-04-12T15:05:41.578Z,40.18
2024-04-12T15:11:02.570Z,40.56
2024-04-12T15:16:22.998Z,39.84
2024-04-12T15:21:43.588Z,40.05
2024-04-12T15:27:03.913Z,39.65
2024-04-12T15:32:24.539Z,39.85
2024-04-12T15:37:45.371Z,40.09
2024-04-12T15:43:05.971Z,40.91
2024-04-12T15:48:13.090Z,41.26
2024-04-12T15:53:26.781Z,41.18
2024-04-12T15:58:48.946Z,41.70
2024-04-12T16:04:09.314Z,41.51
2024-04-12T16:09:29.770Z,41.70
2024-04-12T16:14:31.687Z,41.72
2024-04-12T16:19:34.116Z,41.70
2024-04-12T16:24:36.173Z,42.43
2024-04-12T16:29:38.131Z,42.54
2024-04-12T16:34:39.950Z,43.04
2024-04-12T16:39:42.009Z,42.87
2024-04-12T16:44:43.888Z,43.66
2024-04-12T16:49:45.786Z,44.26
2024-04-12T16:54:47.850Z,44.73
2024-04-12T16:59:49.871Z,45.44
2024-04-12T17:04:54.067Z,46.21
2024-04-12T17:09:58.913Z,46.70
2024-04-12T17:15:00.638Z,47.48
2024-04-12T17:20:04.060Z,47.91
2024-04-12T17:25:09.960Z,48.51
2024-04-12T17:30:12.923Z,49.30
2024-04-12T17:35:16.349Z,50.12
2024-04-12T17:40:21.121Z,50.85
2024-04-12T17:45:24.131Z,51.57
2024-04-12T17:50:26.473Z,52.18
2024-04-12T17:55:28.330Z,52.94
2024-04-12T18:00:30.080Z,54.13
2024-04-12T18:05:31.821Z,54.72
2024-04-12T18:10:33.525Z,55.25
2024-04-12T18:15:38.927Z,56.00
2024-04-12T18:20:42.605Z,57.02
2024-04-12T18:25:44.530Z,57.81
2024-04-12T18:30:46.242Z,58.22
2024-04-12T18:36:02.643Z,58.38
2024-04-12T18:41:24.984Z,58.97
2024-04-12T18:46:26.758Z,59.48
2024-04-12T18:51:28.452Z,60.10
2024-04-12T18:56:30.460Z,60.63
2024-04-12T19:01:32.296Z,61.43
2024-04-12T19:06:34.457Z,62.10
2024-04-12T19:11:36.361Z,62.55
2024-04-12T19:16:41.654Z,62.85
2024-04-12T19:21:44.942Z,63.09
2024-04-12T19:26:46.695Z,63.49
2024-04-12T19:31:51.541Z,64.63
2024-04-12T19:36:53.474Z,64.55
2024-04-12T19:41:57.195Z,65.66
2024-04-12T19:46:59.358Z,66.21
2024-04-12T19:52:04.870Z,67.05
2024-04-12T19:57:06.981Z,67.39
2024-04-12T20:02:09.022Z,67.41
2024-04-12T20:07:10.960Z,67.97
2024-04-12T20:12:13.014Z,68.23
2024-04-12T20:17:22.310Z,68.73
2024-04-12T20:22:24.177Z,69.36
2024-04-12T20:27:25.902Z,70.13
2024-04-12T20:32:37.362Z,70.76
2024-04-12T20:37:39.555Z,70.61
2024-04-12T20:42:41.348Z,71.34
2024-04-12T20:47:43.228Z,72.26
2024-04-12T20:52:45.062Z,71.88
2024-04-12T20:57:46.998Z,72.19
2024-04-12T21:02:48.652Z,72.53
2024-04-12T21:07:58.208Z,73.17
2024-04-12T21:12:59.967Z,72.80
2024-04-12T21:18:01.825Z,72.68
2024-04-12T21:23:09.163Z,72.85
2024-04-12T21:28:24.558Z,73.42
2024-04-12T21:33:27.969Z,73.40
2024-04-12T21:38:32.150Z,73.58
2024-04-12T21:43:37.379Z,74.02
2024-04-12T21:48:41.627Z,73.97
2024-04-12T21:53:43.477Z,74.02
2024-04-12T21:58:45.369Z,74.02
2024-04-12T22:03:47.387Z,74.10
2024-04-12T22:08:52.318Z,74.33
2024-04-12T22:13:54.086Z,74.53
2024-04-12T22:18:56.051Z,74.91
2024-04-12T22:24:00.239Z,75.39
2024-04-12T22:29:02.063Z,76.03
2024-04-12T22:34:03.801Z,76.14
2024-04-12T22:39:05.616Z,76.18
2024-04-12T22:44:07.523Z,76.22
2024-04-12T22:49:09.189Z,76.69
2024-04-12T22:54:10.959Z,76.86
2024-04-12T22:59:12.759Z,77.17
2024-04-12T23:04:14.526Z,78.05
2024-04-12T23:09:20.383Z,78.15
2024-04-12T23:14:22.511Z,78.36
2024-04-12T23:19:24.452Z,78.38
2024-04-12T23:24:26.230Z,78.73
2024-04-12T23:29:28.102Z,78.80
2024-04-12T23:34:29.884Z,79.21
2024-04-12T23:39:31.784Z,79.14
2024-04-12T23:44:34.150Z,79.23
2024-04-12T23:49:35.879Z,79.11
2024-04-12T23:54:38.259Z,79.56
2024-04-12T23:59:40.101Z,79.83
